createdAt,value
2023-04-29T00:00:09.060Z,98148.28
2023-04-29T00:02:35.951Z,98145.63
2023-04-29T00:05:05.198Z,98148.97
2023-04-29T00:07:32.553Z,98147.06
2023-04-29T00:09:59.301Z,98146.16
2023-04-29T00:12:26.029Z,98148.94
2023-04-29T00:14:52.437Z,98154.16
2023-04-29T00:17:18.907Z,98155.19
2023-04-29T00:19:45.343Z,98160.13
2023-04-29T00:22:11.845Z,98161.50
2023-04-29T00:24:38.811Z,98160.66
2023-04-29T00:27:06.665Z,98156.25
2023-04-29T00:29:33.127Z,98159.50
2023-04-29T00:31:59.996Z,98160.19
2023-04-29T00:34:26.752Z,98152.09
2023-04-29T00:36:53.301Z,98156.34
2023-04-29T00:39:19.728Z,98152.75
2023-04-29T00:41:46.305Z,98161.69
2023-04-29T00:44:12.766Z,98157.91
2023-04-29T00:46:39.431Z,98159.81
2023-04-29T00:49:06.158Z,98164.16
2023-04-29T00:51:33.633Z,98163.59
2023-04-29T00:54:00.324Z,98161.56
2023-04-29T00:56:30.806Z,98154.28
2023-04-29T00:58:58.071Z,98155.72
2023-04-29T01:01:24.609Z,98158.69
2023-04-29T01:03:51.323Z,98157.16
2023-04-29T01:06:35.373Z,98163.13
2023-04-29T01:09:11.056Z,98166.41
2023-04-29T01:11:53.365Z,98166.81
2023-04-29T01:14:21.212Z,98156.06
2023-04-29T01:16:59.603Z,98157.44
2023-04-29T01:19:47.300Z,98169.13
2023-04-29T01:22:18.809Z,98167.84
2023-04-29T01:24:45.240Z,98164.53
2023-04-29T01:27:29.804Z,98159.84
2023-04-29T01:30:13.378Z,98167.38
2023-04-29T01:33:12.494Z,98160.88
2023-04-29T01:35:44.789Z,98170.88
2023-04-29T01:38:26.439Z,98169.56
2023-04-29T01:41:18.790Z,98168.75
2023-04-29T01:43:49.977Z,98163.94
2023-04-29T01:46:18.575Z,98161.28
2023-04-29T01:48:45.323Z,98171.78
2023-04-29T01:51:12.320Z,98171.63
2023-04-29T01:53:40.509Z,98163.94
2023-04-29T01:56:08.159Z,98160.09
2023-04-29T01:58:34.678Z,98170.59
2023-04-29T02:01:01.259Z,98168.91
2023-04-29T02:03:27.857Z,98162.59
2023-04-29T02:05:54.473Z,98168.75
2023-04-29T02:08:20.972Z,98169.94
2023-04-29T02:10:58.284Z,98174.59
2023-04-29T02:13:24.797Z,98173.44
2023-04-29T02:15:51.368Z,98169.75
2023-04-29T02:18:17.811Z,98173.91
2023-04-29T02:20:45.257Z,98173.59
2023-04-29T02:23:11.827Z,98175.78
2023-04-29T02:25:38.728Z,98176.63
2023-04-29T02:28:05.262Z,98187.97
2023-04-29T02:30:31.706Z,98185.13
2023-04-29T02:32:58.169Z,98183.28
2023-04-29T02:35:24.578Z,98192.94
2023-04-29T02:37:50.971Z,98193.94
2023-04-29T02:40:17.442Z,98192.44
2023-04-29T02:42:44.462Z,98196.97
2023-04-29T02:45:11.244Z,98198.28
2023-04-29T02:47:37.879Z,98196.25
2023-04-29T02:50:04.834Z,98200.28
2023-04-29T02:52:31.276Z,98206.56
2023-04-29T02:54:57.715Z,98205.75
2023-04-29T02:57:24.115Z,98209.25
2023-04-29T02:59:51.429Z,98205.72
2023-04-29T03:02:18.150Z,98210.78
2023-04-29T03:04:44.891Z,98208.28
2023-04-29T03:07:11.334Z,98208.94
2023-04-29T03:09:37.850Z,98215.56
2023-04-29T03:12:04.594Z,98212.25
2023-04-29T03:14:31.108Z,98212.09
2023-04-29T03:16:57.929Z,98213.72
2023-04-29T03:19:24.455Z,98215.22
2023-04-29T03:21:52.776Z,98211.72
2023-04-29T03:24:20.344Z,98218.22
2023-04-29T03:26:46.908Z,98205.19
2023-04-29T03:29:13.439Z,98214.19
2023-04-29T03:31:40.320Z,98212.16
2023-04-29T03:34:06.922Z,98214.66
2023-04-29T03:36:33.360Z,98210.69
2023-04-29T03:38:59.776Z,98217.31
2023-04-29T03:41:26.274Z,98227.97
2023-04-29T03:43:52.722Z,98226.50
2023-04-29T03:46:19.161Z,98236.81
2023-04-29T03:48:45.762Z,98230.09
2023-04-29T03:51:13.357Z,98224.75
2023-04-29T03:53:40.274Z,98223.91
2023-04-29T03:56:06.973Z,98217.75
2023-04-29T03:58:33.528Z,98223.53
2023-04-29T04:01:00.036Z,98219.78
2023-04-29T04:03:28.261Z,98216.75
2023-04-29T04:05:54.788Z,98227.59
2023-04-29T04:08:21.253Z,98230.72
2023-04-29T04:10:47.682Z,98241.63
2023-04-29T04:13:14.332Z,98236.09
2023-04-29T04:15:42.439Z,98238.31
2023-04-29T04:18:08.897Z,98235.97
2023-04-29T04:20:38.555Z,98250.88
2023-04-29T04:23:05.040Z,98244.78
2023-04-29T04:25:31.460Z,98256.25
2023-04-29T04:27:57.924Z,98255.28
2023-04-29T04:30:24.384Z,98255.19
2023-04-29T04:32:50.989Z,98256.44
2023-04-29T04:35:17.757Z,98259.06
2023-04-29T04:37:44.189Z,98267.00
2023-04-29T04:40:12.316Z,98269.69
2023-04-29T04:42:41.762Z,98269.50
2023-04-29T04:45:11.031Z,98268.50
2023-04-29T04:47:37.791Z,98275.22
2023-04-29T04:50:04.680Z,98276.03
2023-04-29T04:52:31.358Z,98276.88
2023-04-29T04:54:57.801Z,98278.34
2023-04-29T04:57:24.238Z,98283.16
2023-04-29T04:59:50.979Z,98284.44
2023-04-29T05:02:17.524Z,98292.06
2023-04-29T05:04:44.683Z,98288.28
2023-04-29T05:07:11.183Z,98287.13
2023-04-29T05:09:37.724Z,98292.41
2023-04-29T05:12:04.375Z,98297.78
2023-04-29T05:14:30.898Z,98296.94
2023-04-29T05:17:00.586Z,98304.47
2023-04-29T05:19:27.227Z,98304.47
2023-04-29T05:21:53.713Z,98300.28
2023-04-29T05:24:20.552Z,98303.56
2023-04-29T05:26:47.067Z,98300.69
2023-04-29T05:29:13.660Z,98305.56
2023-04-29T05:31:40.197Z,98310.44
2023-04-29T05:34:06.956Z,98312.72
2023-04-29T05:36:33.394Z,98316.88
2023-04-29T05:38:59.911Z,98319.75
2023-04-29T05:41:26.829Z,98318.41
2023-04-29T05:43:53.313Z,98322.75
2023-04-29T05:46:20.680Z,98321.16
2023-04-29T05:48:47.256Z,98325.03
2023-04-29T05:51:14.682Z,98336.22
2023-04-29T05:53:41.318Z,98335.41
2023-04-29T05:56:08.473Z,98337.34
2023-04-29T05:58:35.641Z,98345.09
2023-04-29T06:01:02.631Z,98339.63
2023-04-29T06:03:29.457Z,98347.16
2023-04-29T06:05:56.442Z,98348.16
2023-04-29T06:08:23.023Z,98349.66
2023-04-29T06:10:51.899Z,98365.06
2023-04-29T06:13:19.565Z,98361.16
2023-04-29T06:15:46.430Z,98365.91
2023-04-29T06:18:13.481Z,98368.84
2023-04-29T06:20:39.894Z,98380.22
2023-04-29T06:23:06.469Z,98382.19
2023-04-29T06:25:32.872Z,98384.84
2023-04-29T06:27:59.284Z,98387.28
2023-04-29T06:30:26.520Z,98390.63
2023-04-29T06:32:53.666Z,98399.28
2023-04-29T06:35:20.250Z,98406.16
2023-04-29T06:37:47.704Z,98404.31
2023-04-29T06:40:14.265Z,98404.63
2023-04-29T06:42:40.742Z,98407.91
2023-04-29T06:45:08.027Z,98410.81
2023-04-29T06:47:34.718Z,98417.28
2023-04-29T06:50:01.237Z,98433.09
2023-04-29T06:52:27.871Z,98432.13
2023-04-29T06:54:54.333Z,98431.06
2023-04-29T06:57:20.895Z,98430.84
2023-04-29T06:59:47.580Z,98437.22
2023-04-29T07:02:14.372Z,98439.38
2023-04-29T07:04:41.501Z,98439.75
2023-04-29T07:07:08.111Z,98439.34
2023-04-29T07:09:34.522Z,98446.75
2023-04-29T07:12:02.806Z,98445.38
2023-04-29T07:14:29.299Z,98448.06
2023-04-29T07:16:56.098Z,98454.44
2023-04-29T07:19:22.663Z,98453.84
2023-04-29T07:21:49.258Z,98464.38
2023-04-29T07:24:15.804Z,98464.66
2023-04-29T07:26:44.985Z,98465.19
2023-04-29T07:29:11.552Z,98466.63
2023-04-29T07:31:38.622Z,98470.81
2023-04-29T07:34:05.951Z,98469.81
2023-04-29T07:36:33.047Z,98472.81
2023-04-29T07:38:59.770Z,98482.66
2023-04-29T07:41:27.261Z,98480.94
2023-04-29T07:43:53.904Z,98473.94
2023-04-29T07:46:20.965Z,98478.44
2023-04-29T07:48:47.532Z,98491.81
2023-04-29T07:51:15.176Z,98486.81
2023-04-29T07:53:41.894Z,98482.13
2023-04-29T07:56:09.214Z,98488.38
2023-04-29T07:58:35.900Z,98495.22
2023-04-29T08:01:06.691Z,98496.00
2023-04-29T08:03:33.298Z,98491.72
2023-04-29T08:06:06.610Z,98498.31
2023-04-29T08:08:33.142Z,98502.97
2023-04-29T08:10:59.684Z,98505.59
2023-04-29T08:13:26.186Z,98508.25
2023-04-29T08:15:53.667Z,98511.06
2023-04-29T08:18:21.349Z,98519.66
2023-04-29T08:20:49.341Z,98518.34
2023-04-29T08:23:15.812Z,98519.16
2023-04-29T08:25:43.966Z,98522.56
2023-04-29T08:28:11.249Z,98525.31
2023-04-29T08:30:39.689Z,98525.41
2023-04-29T08:33:06.727Z,98522.91
2023-04-29T08:35:33.222Z,98530.25
2023-04-29T08:37:59.811Z,98533.16
2023-04-29T08:40:26.484Z,98535.91
2023-04-29T08:42:54.518Z,98539.19
2023-04-29T08:45:24.922Z,98534.03
2023-04-29T08:47:52.591Z,98541.50
2023-04-29T08:50:21.960Z,98543.78
2023-04-29T08:52:50.559Z,98549.34
2023-04-29T08:55:18.359Z,98550.47
2023-04-29T08:57:47.378Z,98550.97
2023-04-29T09:00:14.310Z,98557.75
2023-04-29T09:02:49.397Z,98546.63
2023-04-29T09:05:16.325Z,98553.78
2023-04-29T09:07:44.300Z,98554.75
2023-04-29T09:10:11.978Z,98554.75
2023-04-29T09:12:38.775Z,98561.16
2023-04-29T09:15:05.668Z,98563.22
2023-04-29T09:17:43.055Z,98568.00
2023-04-29T09:20:21.718Z,98572.78
2023-04-29T09:22:49.295Z,98581.66
2023-04-29T09:25:16.237Z,98581.13
2023-04-29T09:27:42.851Z,98575.34
2023-04-29T09:30:10.858Z,98570.13
2023-04-29T09:32:39.163Z,98560.47
2023-04-29T09:35:25.351Z,98554.84
2023-04-29T09:37:56.257Z,98566.00
2023-04-29T09:40:38.298Z,98567.53
2023-04-29T09:43:15.845Z,98574.41
2023-04-29T09:45:44.687Z,98569.34
2023-04-29T09:48:12.356Z,98561.81
2023-04-29T09:50:40.304Z,98569.16
2023-04-29T09:53:09.185Z,98561.50
2023-04-29T09:55:36.469Z,98569.34
2023-04-29T09:58:03.525Z,98555.50
2023-04-29T10:00:33.732Z,98560.75
2023-04-29T10:03:03.978Z,98567.22
2023-04-29T10:05:31.270Z,98562.91
2023-04-29T10:07:59.726Z,98567.19
2023-04-29T10:10:30.301Z,98567.47
2023-04-29T10:13:01.027Z,98564.56
2023-04-29T10:15:57.892Z,98566.91
2023-04-29T10:18:35.816Z,98570.88
2023-04-29T10:21:03.831Z,98575.91
2023-04-29T10:23:31.098Z,98563.81
2023-04-29T10:25:59.678Z,98573.81
2023-04-29T10:28:27.655Z,98571.88
2023-04-29T10:30:54.680Z,98570.84
2023-04-29T10:33:23.273Z,98573.81
2023-04-29T10:35:50.916Z,98571.28
2023-04-29T10:38:24.590Z,98581.63
2023-04-29T10:40:53.779Z,98557.25
2023-04-29T10:43:26.856Z,98567.25
2023-04-29T10:46:18.301Z,98569.34
2023-04-29T10:48:45.772Z,98572.59
2023-04-29T10:51:12.449Z,98576.38
2023-04-29T10:53:59.593Z,98570.03
2023-04-29T10:56:37.240Z,98575.63
2023-04-29T10:59:03.762Z,98574.88
2023-04-29T11:01:50.376Z,98581.06
2023-04-29T11:04:18.667Z,98578.53
2023-04-29T11:06:48.422Z,98581.69
2023-04-29T11:09:19.769Z,98595.41
2023-04-29T11:11:53.971Z,98586.06
2023-04-29T11:14:29.376Z,98594.53
2023-04-29T11:17:01.867Z,98590.59
2023-04-29T11:19:33.891Z,98596.81
2023-04-29T11:22:09.667Z,98601.84
2023-04-29T11:24:39.262Z,98602.97
2023-04-29T11:27:05.976Z,98600.03
2023-04-29T11:29:33.315Z,98602.19
2023-04-29T11:32:02.222Z,98606.59
2023-04-29T11:34:28.823Z,98605.97
2023-04-29T11:36:55.396Z,98607.38
2023-04-29T11:39:21.883Z,98606.63
2023-04-29T11:41:51.239Z,98605.69
2023-04-29T11:44:22.647Z,98603.53
2023-04-29T11:46:49.727Z,98609.06
2023-04-29T11:49:16.228Z,98608.03
2023-04-29T11:51:42.744Z,98617.16
2023-04-29T11:54:09.241Z,98617.63
2023-04-29T11:56:38.081Z,98619.78
2023-04-29T11:59:08.076Z,98616.06
2023-04-29T12:01:36.004Z,98606.03
2023-04-29T12:04:03.322Z,98618.31
2023-04-29T12:06:30.620Z,98615.59
2023-04-29T12:08:59.332Z,98616.06
2023-04-29T12:11:26.705Z,98623.00
2023-04-29T12:13:53.711Z,98629.06
2023-04-29T12:16:20.505Z,98634.63
2023-04-29T12:18:47.130Z,98640.03
2023-04-29T12:21:13.626Z,98633.34
2023-04-29T12:23:41.399Z,98629.22
2023-04-29T12:26:09.076Z,98630.53
2023-04-29T12:28:35.818Z,98632.88
2023-04-29T12:31:02.349Z,98634.63
2023-04-29T12:33:29.739Z,98628.72
2023-04-29T12:35:58.589Z,98640.81
2023-04-29T12:38:30.036Z,98646.34
2023-04-29T12:41:00.123Z,98643.13
2023-04-29T12:43:31.279Z,98643.69
2023-04-29T12:46:02.499Z,98638.63
2023-04-29T12:48:33.998Z,98639.94
2023-04-29T12:51:01.537Z,98645.88
2023-04-29T12:53:30.844Z,98651.00
2023-04-29T12:55:58.108Z,98643.63
2023-04-29T12:58:25.091Z,98646.81
2023-04-29T13:00:51.719Z,98653.84
2023-04-29T13:03:19.748Z,98642.69
2023-04-29T13:05:51.432Z,98653.56
2023-04-29T13:08:19.392Z,98648.03
2023-04-29T13:10:46.327Z,98648.84
2023-04-29T13:13:13.355Z,98650.38
2023-04-29T13:15:39.856Z,98654.22
2023-04-29T13:18:06.630Z,98658.22
2023-04-29T13:20:33.574Z,98654.75
2023-04-29T13:23:03.549Z,98652.72
2023-04-29T13:25:29.928Z,98644.69
2023-04-29T13:27:56.535Z,98651.22
2023-04-29T13:30:23.054Z,98652.06
2023-04-29T13:32:54.857Z,98651.16
2023-04-29T13:35:25.046Z,98662.72
2023-04-29T13:37:51.528Z,98655.88
2023-04-29T13:40:20.937Z,98647.38
2023-04-29T13:42:50.541Z,98653.06
2023-04-29T13:45:19.731Z,98663.25
2023-04-29T13:48:06.180Z,98653.72
2023-04-29T13:53:35.842Z,98655.06
2023-04-29T14:01:16.737Z,98669.44
2023-04-29T14:03:35.802Z,98667.63
2023-04-29T14:06:02.752Z,98660.06
2023-04-29T14:08:29.171Z,98662.28
2023-04-29T14:10:55.632Z,98662.09
2023-04-29T14:13:22.401Z,98670.81
2023-04-29T14:15:49.090Z,98674.97
2023-04-29T14:18:15.588Z,98668.91
2023-04-29T14:20:41.967Z,98676.13
2023-04-29T14:23:08.378Z,98671.72
2023-04-29T14:25:34.814Z,98677.81
2023-04-29T14:28:01.243Z,98685.50
2023-04-29T14:30:27.690Z,98686.84
2023-04-29T14:32:54.191Z,98682.47
2023-04-29T14:35:20.610Z,98683.81
2023-04-29T14:37:47.139Z,98695.03
2023-04-29T14:40:13.710Z,98696.06
2023-04-29T14:42:40.390Z,98698.59
2023-04-29T14:45:07.992Z,98691.91
2023-04-29T14:47:34.566Z,98698.59
2023-04-29T14:50:01.846Z,98700.25
2023-04-29T14:52:28.345Z,98701.09
2023-04-29T14:54:54.920Z,98704.28
2023-04-29T14:57:21.703Z,98704.94
2023-04-29T14:59:48.189Z,98712.75
2023-04-29T15:02:14.682Z,98718.41
2023-04-29T15:04:45.586Z,98721.63
2023-04-29T15:07:13.750Z,98721.38
2023-04-29T15:09:40.487Z,98726.75
2023-04-29T15:12:07.176Z,98725.59
2023-04-29T15:14:34.023Z,98738.28
2023-04-29T15:17:00.481Z,98736.59
2023-04-29T15:19:26.925Z,98738.25
2023-04-29T15:21:53.508Z,98736.56
2023-04-29T15:24:20.071Z,98739.84
2023-04-29T15:26:46.669Z,98745.19
2023-04-29T15:29:13.147Z,98747.78
2023-04-29T15:31:39.690Z,98756.31
2023-04-29T15:34:06.566Z,98745.00
2023-04-29T15:36:34.327Z,98746.78
2023-04-29T15:39:00.946Z,98756.22
2023-04-29T15:41:27.602Z,98764.38
2023-04-29T15:43:56.329Z,98767.63
2023-04-29T15:46:23.574Z,98765.88
2023-04-29T15:48:50.150Z,98763.16
2023-04-29T15:51:16.752Z,98772.19
2023-04-29T15:53:45.761Z,98771.81
2023-04-29T15:56:13.229Z,98776.25
2023-04-29T15:58:39.710Z,98774.94
2023-04-29T16:01:06.635Z,98779.50
2023-04-29T16:03:33.172Z,98771.97
2023-04-29T16:05:59.710Z,98780.59
2023-04-29T16:08:26.536Z,98784.19
2023-04-29T16:10:53.057Z,98779.22
2023-04-29T16:13:19.902Z,98789.09
2023-04-29T16:15:46.560Z,98785.56
2023-04-29T16:18:14.588Z,98786.56
2023-04-29T16:20:41.941Z,98790.25
2023-04-29T16:23:08.745Z,98788.25
2023-04-29T16:25:35.290Z,98777.78
2023-04-29T16:28:02.094Z,98785.34
2023-04-29T16:30:28.618Z,98790.16
2023-04-29T16:32:55.153Z,98791.56
2023-04-29T16:35:26.444Z,98788.41
2023-04-29T16:37:56.354Z,98792.28
2023-04-29T16:40:24.072Z,98794.63
2023-04-29T16:42:51.234Z,98786.25
2023-04-29T16:45:18.344Z,98790.53
2023-04-29T16:47:45.287Z,98793.41
2023-04-29T16:50:11.852Z,98793.91
2023-04-29T16:52:38.288Z,98791.84
2023-04-29T16:55:05.120Z,98798.47
2023-04-29T16:57:31.994Z,98794.97
2023-04-29T16:59:58.418Z,98797.84
2023-04-29T17:02:24.969Z,98795.88
2023-04-29T17:04:52.348Z,98801.03
2023-04-29T17:07:21.994Z,98801.53
2023-04-29T17:09:48.549Z,98808.44
2023-04-29T17:12:15.257Z,98802.13
2023-04-29T17:14:41.767Z,98811.00
2023-04-29T17:17:08.225Z,98809.41
2023-04-29T17:19:34.980Z,98806.56
2023-04-29T17:22:01.802Z,98807.47
2023-04-29T17:24:28.351Z,98811.38
2023-04-29T17:26:54.898Z,98800.78
2023-04-29T17:29:21.519Z,98807.25
2023-04-29T17:31:54.718Z,98809.78
2023-04-29T17:34:25.451Z,98806.47
2023-04-29T17:36:54.977Z,98818.88
2023-04-29T17:39:21.435Z,98814.03
2023-04-29T17:41:47.825Z,98821.50
2023-04-29T17:44:14.361Z,98825.47
2023-04-29T17:46:40.981Z,98823.56
2023-04-29T17:49:07.500Z,98827.63
2023-04-29T17:51:34.036Z,98829.25
2023-04-29T17:54:01.926Z,98832.34
2023-04-29T17:56:28.515Z,98825.00
2023-04-29T17:58:55.016Z,98829.06
2023-04-29T18:01:21.482Z,98824.03
2023-04-29T18:03:48.035Z,98835.25
2023-04-29T18:06:14.562Z,98840.16
2023-04-29T18:08:41.889Z,98835.72
2023-04-29T18:11:09.760Z,98836.63
2023-04-29T18:13:36.282Z,98839.75
2023-04-29T18:16:02.772Z,98842.69
2023-04-29T18:18:29.192Z,98854.50
2023-04-29T18:20:56.341Z,98841.66
2023-04-29T18:23:22.895Z,98849.50
2023-04-29T18:25:49.363Z,98850.81
2023-04-29T18:28:24.806Z,98851.81
2023-04-29T18:30:52.235Z,98861.28
2023-04-29T18:33:18.883Z,98863.22
2023-04-29T18:35:49.038Z,98863.22
2023-04-29T18:38:17.312Z,98856.06
2023-04-29T18:40:44.471Z,98858.72
2023-04-29T18:43:12.025Z,98866.91
2023-04-29T18:45:38.888Z,98865.47
2023-04-29T18:48:06.850Z,98862.94
2023-04-29T18:50:33.694Z,98871.34
2023-04-29T18:53:00.185Z,98864.19
2023-04-29T18:55:27.185Z,98860.59
2023-04-29T18:57:53.648Z,98863.31
2023-04-29T19:00:20.605Z,98867.75
2023-04-29T19:02:47.040Z,98871.13
2023-04-29T19:05:14.112Z,98867.38
2023-04-29T19:07:40.776Z,98872.53
2023-04-29T19:10:07.774Z,98880.03
2023-04-29T19:12:34.300Z,98878.19
2023-04-29T19:15:01.094Z,98886.22
2023-04-29T19:17:27.704Z,98890.16
2023-04-29T19:19:54.860Z,98889.16
2023-04-29T19:22:21.700Z,98898.72
2023-04-29T19:24:48.531Z,98891.22
2023-04-29T19:27:15.050Z,98905.41
2023-04-29T19:29:41.553Z,98904.72
2023-04-29T19:32:08.664Z,98904.66
2023-04-29T19:34:35.340Z,98898.97
2023-04-29T19:37:02.048Z,98902.16
2023-04-29T19:39:28.912Z,98908.75
2023-04-29T19:41:56.034Z,98899.97
2023-04-29T19:44:22.909Z,98909.09
2023-04-29T19:46:53.590Z,98910.16
2023-04-29T19:49:20.706Z,98913.50
2023-04-29T19:51:47.210Z,98907.06
2023-04-29T19:54:13.932Z,98910.84
2023-04-29T19:56:40.468Z,98914.25
2023-04-29T19:59:06.965Z,98916.59
2023-04-29T20:01:33.554Z,98916.75
2023-04-29T20:04:00.531Z,98918.47
2023-04-29T20:06:27.257Z,98915.41
2023-04-29T20:08:53.770Z,98932.50
2023-04-29T20:11:20.908Z,98925.66
2023-04-29T20:13:48.235Z,98929.19
2023-04-29T20:16:14.739Z,98920.91
2023-04-29T20:18:41.477Z,98924.72
2023-04-29T20:21:08.027Z,98929.06
2023-04-29T20:23:34.487Z,98930.59
2023-04-29T20:26:01.416Z,98928.91
2023-04-29T20:28:27.944Z,98934.13
2023-04-29T20:30:54.429Z,98925.69
2023-04-29T20:33:20.944Z,98924.72
2023-04-29T20:35:47.463Z,98938.59
2023-04-29T20:38:14.091Z,98935.81
2023-04-29T20:40:40.678Z,98943.53
2023-04-29T20:43:07.665Z,98936.38
2023-04-29T20:45:36.922Z,98938.31
2023-04-29T20:48:03.776Z,98938.88
2023-04-29T20:50:30.530Z,98927.91
2023-04-29T20:52:57.501Z,98937.31
2023-04-29T20:55:24.125Z,98935.66
2023-04-29T20:57:50.706Z,98933.81
2023-04-29T21:00:17.203Z,98935.78
2023-04-29T21:02:43.796Z,98935.50
2023-04-29T21:05:10.809Z,98943.91
2023-04-29T21:07:37.665Z,98941.53
2023-04-29T21:10:04.747Z,98947.13
2023-04-29T21:12:31.198Z,98952.19
2023-04-29T21:14:57.621Z,98939.41
2023-04-29T21:17:24.103Z,98932.53
2023-04-29T21:19:50.583Z,98948.09
2023-04-29T21:22:17.042Z,98945.31
2023-04-29T21:24:43.570Z,98941.91
2023-04-29T21:27:10.021Z,98939.09
2023-04-29T21:29:40.673Z,98948.53
2023-04-29T21:32:08.125Z,98941.22
2023-04-29T21:34:35.561Z,98942.75
2023-04-29T21:37:02.118Z,98939.69
2023-04-29T21:39:28.679Z,98943.34
2023-04-29T21:41:55.846Z,98945.44
2023-04-29T21:44:22.511Z,98939.97
2023-04-29T21:46:49.165Z,98940.25
2023-04-29T21:49:16.372Z,98947.81
2023-04-29T21:51:43.139Z,98943.75
2023-04-29T21:54:09.642Z,98948.22
2023-04-29T21:56:36.448Z,98942.03
2023-04-29T21:59:02.998Z,98946.53
2023-04-29T22:01:47.859Z,98946.66
2023-04-29T22:04:18.876Z,98943.44
2023-04-29T22:06:45.520Z,98947.91
2023-04-29T22:09:12.196Z,98953.66
2023-04-29T22:11:38.810Z,98957.31
2023-04-29T22:14:05.524Z,98958.00
2023-04-29T22:16:33.946Z,98965.00
2023-04-29T22:19:00.549Z,98961.22
2023-04-29T22:21:27.857Z,98963.47
2023-04-29T22:23:55.112Z,98961.47
2023-04-29T22:26:22.331Z,98972.94
2023-04-29T22:28:48.806Z,98970.44
2023-04-29T22:31:15.343Z,98984.59
2023-04-29T22:33:41.789Z,98979.25
2023-04-29T22:36:08.309Z,98978.69
2023-04-29T22:38:35.015Z,98977.56
2023-04-29T22:41:01.758Z,98979.78
2023-04-29T22:43:28.237Z,98976.66
2023-04-29T22:45:56.109Z,98982.44
2023-04-29T22:48:25.105Z,98986.34
2023-04-29T22:50:54.354Z,98992.72
2023-04-29T22:53:21.375Z,98991.28
2023-04-29T22:55:57.403Z,98981.81
2023-04-29T22:58:25.367Z,98986.47
2023-04-29T23:00:54.499Z,98983.38
2023-04-29T23:03:20.970Z,98986.28
2023-04-29T23:05:47.734Z,98995.00
2023-04-29T23:08:14.186Z,98990.50
2023-04-29T23:10:41.391Z,98990.19
2023-04-29T23:13:07.970Z,98990.34
2023-04-29T23:15:34.455Z,98984.03
2023-04-29T23:18:00.973Z,98992.03
2023-04-29T23:20:27.461Z,98987.09
2023-04-29T23:22:53.911Z,98990.72
2023-04-29T23:25:20.274Z,98995.91
2023-04-29T23:27:46.731Z,99003.72
2023-04-29T23:30:13.181Z,99011.09
2023-04-29T23:32:39.724Z,98999.41
2023-04-29T23:35:06.780Z,98995.66
2023-04-29T23:37:33.385Z,99005.56
2023-04-29T23:39:59.923Z,98999.16
2023-04-29T23:42:27.684Z,99003.84
2023-04-29T23:44:54.174Z,99001.38
2023-04-29T23:47:21.192Z,99004.16
2023-04-29T23:49:47.726Z,99000.06
2023-04-29T23:52:14.112Z,99006.09
2023-04-29T23:54:40.670Z,99009.03
2023-04-29T23:57:07.157Z,99002.47
2023-04-29T23:59:33.570Z,99005.41
